createdAt,value
2022-11-09T00:01:40.021Z,100.00
2022-11-09T00:04:07.957Z,100.00
2022-11-09T00:06:35.537Z,100.00
2022-11-09T00:09:07.915Z,100.00
2022-11-09T00:11:35.778Z,100.00
2022-11-09T00:14:02.418Z,100.00
2022-11-09T00:16:29.178Z,100.00
2022-11-09T00:18:56.217Z,100.00
2022-11-09T00:21:24.871Z,100.00
2022-11-09T00:23:52.340Z,100.00
2022-11-09T00:26:20.743Z,100.00
2022-11-09T00:28:47.888Z,100.00
2022-11-09T00:31:17.615Z,100.00
2022-11-09T00:33:48.241Z,100.00
2022-11-09T00:36:14.932Z,100.00
2022-11-09T00:38:42.517Z,100.00
2022-11-09T00:41:10.901Z,100.00
2022-11-09T00:43:38.246Z,100.00
2022-11-09T00:46:05.650Z,100.00
2022-11-09T00:48:32.365Z,100.00
2022-11-09T00:50:59.589Z,100.00
2022-11-09T00:53:27.229Z,100.00
2022-11-09T00:55:55.545Z,100.00
2022-11-09T00:58:22.453Z,100.00
2022-11-09T01:00:49.395Z,100.00
2022-11-09T01:03:16.259Z,100.00
2022-11-09T01:05:43.136Z,100.00
2022-11-09T01:08:10.301Z,100.00
2022-11-09T01:10:40.528Z,100.00
2022-11-09T01:13:07.238Z,100.00
2022-11-09T01:15:34.041Z,100.00
2022-11-09T01:18:00.656Z,100.00
2022-11-09T01:20:27.246Z,100.00
2022-11-09T01:22:54.612Z,100.00
2022-11-09T01:25:21.540Z,100.00
2022-11-09T01:27:48.134Z,100.00
2022-11-09T01:30:15.149Z,100.00
2022-11-09T01:32:41.883Z,100.00
2022-11-09T01:35:08.978Z,100.00
2022-11-09T01:37:35.589Z,100.00
2022-11-09T01:40:02.164Z,100.00
2022-11-09T01:42:29.358Z,100.00
2022-11-09T01:45:17.814Z,100.00
2022-11-09T01:47:47.713Z,100.00
2022-11-09T01:50:18.616Z,100.00
2022-11-09T01:52:49.109Z,100.00
2022-11-09T01:55:20.826Z,100.00
2022-11-09T01:57:50.707Z,100.00
2022-11-09T02:00:18.184Z,100.00
2022-11-09T02:02:50.991Z,100.00
2022-11-09T02:05:21.918Z,100.00
2022-11-09T02:07:49.741Z,100.00
2022-11-09T02:10:31.962Z,100.00
2022-11-09T02:12:59.612Z,100.00
2022-11-09T02:15:27.015Z,100.00
2022-11-09T02:17:55.298Z,100.00
2022-11-09T02:20:23.376Z,100.00
2022-11-09T02:22:50.030Z,100.00
2022-11-09T02:25:17.716Z,100.00
2022-11-09T02:27:44.719Z,100.00
2022-11-09T02:30:12.753Z,100.00
2022-11-09T02:32:39.390Z,100.00
2022-11-09T02:35:06.212Z,100.00
2022-11-09T02:37:39.166Z,100.00
2022-11-09T02:40:17.130Z,100.00
2022-11-09T02:42:43.927Z,100.00
2022-11-09T02:45:10.953Z,100.00
2022-11-09T02:47:37.657Z,100.00
2022-11-09T02:50:04.714Z,100.00
2022-11-09T02:52:31.274Z,100.00
2022-11-09T02:54:57.908Z,100.00
2022-11-09T02:57:24.512Z,100.00
2022-11-09T02:59:51.279Z,100.00
2022-11-09T03:02:17.900Z,100.00
2022-11-09T03:04:44.502Z,100.00
2022-11-09T03:07:11.227Z,100.00
2022-11-09T03:09:37.995Z,100.00
2022-11-09T03:12:24.822Z,100.00
2022-11-09T03:14:51.521Z,100.00
2022-11-09T03:17:18.566Z,100.00
2022-11-09T03:19:45.335Z,100.00
2022-11-09T03:22:11.962Z,100.00
2022-11-09T03:24:38.861Z,100.00
2022-11-09T03:27:05.528Z,100.00
2022-11-09T03:29:32.154Z,100.00
2022-11-09T03:31:58.815Z,100.00
2022-11-09T03:34:25.401Z,100.00
2022-11-09T03:36:52.147Z,100.00
2022-11-09T03:39:18.739Z,100.00
2022-11-09T03:41:45.301Z,100.00
2022-11-09T03:44:12.282Z,100.00
2022-11-09T03:46:38.980Z,100.00
2022-11-09T03:49:05.723Z,100.00
2022-11-09T03:51:32.389Z,100.00
2022-11-09T03:53:59.144Z,100.00
2022-11-09T03:56:25.737Z,100.00
2022-11-09T03:58:52.327Z,100.00
2022-11-09T04:01:18.898Z,100.00
2022-11-09T04:03:45.488Z,100.00
2022-11-09T04:06:12.465Z,100.00
2022-11-09T04:08:39.082Z,100.00
2022-11-09T04:11:06.019Z,100.00
2022-11-09T04:13:33.017Z,100.00
2022-11-09T04:15:59.584Z,100.00
2022-11-09T04:18:26.511Z,100.00
2022-11-09T04:20:53.158Z,100.00
2022-11-09T04:23:20.036Z,100.00
2022-11-09T04:25:46.792Z,100.00
2022-11-09T04:28:13.450Z,100.00
2022-11-09T04:30:40.234Z,100.00
2022-11-09T04:33:06.898Z,100.00
2022-11-09T04:35:35.091Z,100.00
2022-11-09T04:38:13.125Z,100.00
2022-11-09T04:40:40.126Z,100.00
2022-11-09T04:43:08.336Z,100.00
2022-11-09T04:45:35.644Z,100.00
2022-11-09T04:48:04.945Z,100.00
2022-11-09T04:50:32.213Z,100.00
2022-11-09T04:53:10.929Z,100.00
2022-11-09T04:55:38.153Z,100.00
2022-11-09T04:58:05.366Z,100.00
2022-11-09T05:00:32.925Z,100.00
2022-11-09T05:03:01.890Z,100.00
2022-11-09T05:05:29.353Z,100.00
2022-11-09T05:07:56.400Z,100.00
2022-11-09T05:10:23.130Z,100.00
2022-11-09T05:12:49.909Z,100.00
2022-11-09T05:15:16.734Z,100.00
2022-11-09T05:17:43.363Z,100.00
2022-11-09T05:20:10.760Z,100.00
2022-11-09T05:22:58.860Z,100.00
2022-11-09T05:25:25.533Z,100.00
2022-11-09T05:27:52.582Z,100.00
2022-11-09T05:30:19.367Z,100.00
2022-11-09T05:32:45.907Z,100.00
2022-11-09T05:35:12.647Z,100.00
2022-11-09T05:37:40.343Z,100.00
2022-11-09T05:40:09.347Z,100.00
2022-11-09T05:42:40.586Z,100.00
2022-11-09T05:45:40.104Z,100.00
2022-11-09T05:47:56.199Z,100.00
2022-11-09T05:50:22.955Z,100.00
2022-11-09T05:52:49.529Z,100.00
2022-11-09T05:55:16.130Z,100.00
2022-11-09T05:57:42.654Z,100.00
2022-11-09T06:00:11.122Z,100.00
2022-11-09T06:02:38.547Z,100.00
2022-11-09T06:05:05.374Z,100.00
2022-11-09T06:07:33.192Z,100.00
2022-11-09T06:09:59.950Z,100.00
2022-11-09T06:12:26.639Z,100.00
2022-11-09T06:14:53.273Z,100.00
2022-11-09T06:17:19.870Z,100.00
2022-11-09T06:19:46.489Z,100.00
2022-11-09T06:22:13.175Z,100.00
2022-11-09T06:24:40.151Z,100.00
2022-11-09T06:27:06.915Z,100.00
2022-11-09T06:29:33.684Z,100.00
2022-11-09T06:32:00.498Z,100.00
2022-11-09T06:34:27.247Z,100.00
2022-11-09T06:36:54.155Z,100.00
2022-11-09T06:39:21.342Z,100.00
2022-11-09T06:41:48.018Z,100.00
2022-11-09T06:44:15.462Z,100.00
2022-11-09T06:46:42.082Z,100.00
2022-11-09T06:49:09.071Z,100.00
2022-11-09T06:51:35.759Z,100.00
2022-11-09T06:54:02.379Z,100.00
2022-11-09T06:56:30.571Z,100.00
2022-11-09T06:58:57.239Z,100.00
2022-11-09T07:01:28.226Z,100.00
2022-11-09T07:03:54.898Z,100.00
2022-11-09T07:09:05.788Z,100.00
2022-11-09T07:11:32.503Z,100.00
2022-11-09T07:13:59.582Z,94.35
2022-11-09T07:16:27.239Z,92.61
2022-11-09T07:18:53.855Z,87.87
2022-11-09T07:21:20.471Z,87.51
2022-11-09T07:23:48.430Z,90.00
2022-11-09T07:26:15.802Z,86.50
2022-11-09T07:28:42.784Z,84.54
2022-11-09T07:31:09.701Z,83.03
2022-11-09T07:33:36.629Z,82.48
2022-11-09T07:36:05.583Z,80.58
2022-11-09T07:38:32.683Z,79.55
2022-11-09T07:41:02.542Z,79.52
2022-11-09T07:43:29.724Z,79.58
2022-11-09T07:45:56.581Z,81.39
2022-11-09T07:48:23.399Z,83.27
2022-11-09T07:50:50.234Z,84.07
2022-11-09T07:53:17.629Z,88.31
2022-11-09T07:55:44.647Z,87.14
2022-11-09T07:58:14.127Z,87.61
2022-11-09T08:00:42.092Z,88.25
2022-11-09T08:03:09.493Z,88.32
2022-11-09T08:05:36.338Z,87.17
2022-11-09T08:08:06.363Z,87.38
2022-11-09T08:10:34.811Z,87.90
2022-11-09T08:13:03.997Z,87.06
2022-11-09T08:15:30.989Z,86.31
2022-11-09T08:18:03.346Z,86.65
2022-11-09T08:20:30.416Z,84.21
2022-11-09T08:23:02.364Z,83.74
2022-11-09T08:25:31.655Z,84.55
2022-11-09T08:27:58.783Z,85.65
2022-11-09T08:30:26.229Z,85.87
2022-11-09T08:32:53.374Z,85.96
2022-11-09T08:35:22.336Z,86.39
2022-11-09T08:37:50.846Z,89.20
2022-11-09T08:40:25.842Z,89.90
2022-11-09T08:42:53.551Z,89.22
2022-11-09T08:45:20.937Z,87.93
2022-11-09T08:47:47.964Z,87.09
2022-11-09T08:50:15.827Z,87.72
2022-11-09T08:52:42.949Z,87.83
2022-11-09T08:55:10.234Z,86.57
2022-11-09T08:57:36.836Z,85.81
2022-11-09T09:00:04.906Z,85.08
2022-11-09T09:02:31.491Z,83.22
2022-11-09T09:04:58.000Z,82.93
2022-11-09T09:07:24.781Z,81.87
2022-11-09T09:09:51.477Z,81.58
2022-11-09T09:12:18.165Z,80.69
2022-11-09T09:14:44.748Z,80.79
2022-11-09T09:17:11.846Z,80.48
2022-11-09T09:19:38.552Z,80.63
2022-11-09T09:22:05.973Z,81.62
2022-11-09T09:24:32.627Z,81.52
2022-11-09T09:26:59.378Z,81.29
2022-11-09T09:29:25.958Z,81.67
2022-11-09T09:31:52.493Z,81.69
2022-11-09T09:34:19.102Z,81.44
2022-11-09T09:36:48.331Z,80.09
2022-11-09T09:39:15.481Z,79.05
2022-11-09T09:42:02.330Z,78.73
2022-11-09T09:44:42.013Z,78.02
2022-11-09T09:47:27.776Z,77.21
2022-11-09T09:50:11.002Z,76.92
2022-11-09T09:53:23.702Z,77.41
2022-11-09T09:55:56.556Z,77.70
2022-11-09T09:58:29.023Z,78.24
2022-11-09T10:01:05.023Z,76.96
2022-11-09T10:03:31.802Z,76.71
2022-11-09T10:06:25.731Z,77.57
2022-11-09T10:09:20.120Z,77.25
2022-11-09T10:11:49.624Z,75.80
2022-11-09T10:14:40.561Z,75.82
2022-11-09T10:17:43.047Z,73.67
2022-11-09T10:20:22.268Z,74.14
2022-11-09T10:23:14.447Z,74.95
2022-11-09T10:29:09.253Z,76.45
2022-11-09T10:31:32.851Z,74.49
2022-11-09T10:34:16.527Z,73.84
2022-11-09T10:37:06.238Z,72.28
2022-11-09T10:39:42.552Z,72.19
2022-11-09T10:42:12.417Z,72.36
2022-11-09T10:44:38.986Z,72.10
2022-11-09T10:47:10.040Z,71.00
2022-11-09T10:49:38.041Z,70.41
2022-11-09T10:52:05.911Z,70.62
2022-11-09T10:54:38.350Z,70.78
2022-11-09T10:57:18.526Z,70.87
2022-11-09T10:59:57.499Z,71.51
2022-11-09T11:02:27.124Z,72.29
2022-11-09T11:04:59.422Z,71.40
2022-11-09T11:07:26.218Z,70.24
2022-11-09T11:09:52.926Z,71.13
2022-11-09T11:12:22.821Z,71.26
2022-11-09T11:14:49.932Z,70.26
2022-11-09T11:17:26.707Z,69.06
2022-11-09T11:19:53.397Z,69.27
2022-11-09T11:22:21.833Z,71.58
2022-11-09T11:24:58.667Z,71.13
2022-11-09T11:27:46.384Z,71.72
2022-11-09T11:30:19.529Z,71.63
2022-11-09T11:32:50.457Z,70.77
2022-11-09T11:35:28.631Z,70.61
2022-11-09T11:38:10.414Z,70.36
2022-11-09T11:41:24.917Z,71.17
2022-11-09T11:44:20.088Z,70.57
2022-11-09T11:47:10.303Z,70.17
2022-11-09T11:49:56.210Z,69.64
2022-11-09T11:52:43.378Z,68.40
2022-11-09T11:55:47.476Z,68.71
2022-11-09T11:58:26.027Z,68.03
2022-11-09T12:00:52.604Z,67.30
2022-11-09T12:03:50.683Z,65.78
2022-11-09T12:06:23.408Z,66.13
2022-11-09T12:09:15.511Z,67.90
2022-11-09T12:12:25.846Z,68.17
2022-11-09T12:15:43.107Z,68.84
2022-11-09T12:18:28.411Z,68.07
2022-11-09T12:21:04.030Z,67.55
2022-11-09T12:23:42.740Z,68.64
2022-11-09T12:26:35.192Z,68.35
2022-11-09T12:29:27.985Z,67.49
2022-11-09T12:32:04.205Z,68.11
2022-11-09T12:34:41.353Z,68.36
2022-11-09T12:37:13.730Z,67.81
2022-11-09T12:39:51.053Z,67.78
2022-11-09T12:42:24.631Z,68.66
2022-11-09T12:45:18.872Z,69.26
2022-11-09T12:47:46.269Z,69.01
2022-11-09T12:50:25.708Z,68.67
2022-11-09T12:52:53.696Z,68.19
2022-11-09T12:55:39.392Z,67.41
2022-11-09T12:58:06.334Z,68.65
2022-11-09T13:00:35.639Z,68.11
2022-11-09T13:03:14.651Z,68.39
2022-11-09T13:05:43.129Z,68.90
2022-11-09T13:08:18.814Z,68.93
2022-11-09T13:10:45.578Z,68.97
2022-11-09T13:13:12.057Z,69.01
2022-11-09T13:15:40.398Z,68.65
2022-11-09T13:18:35.428Z,68.64
2022-11-09T13:21:23.731Z,68.38
2022-11-09T13:24:10.367Z,68.29
2022-11-09T13:26:37.674Z,69.12
2022-11-09T13:29:22.425Z,69.50
2022-11-09T13:32:12.682Z,69.43
2022-11-09T13:34:43.636Z,69.67
2022-11-09T13:37:47.072Z,69.57
2022-11-09T13:40:31.952Z,69.45
2022-11-09T13:43:03.038Z,69.68
2022-11-09T13:45:39.055Z,69.52
2022-11-09T13:48:06.810Z,69.57
2022-11-09T13:50:34.859Z,68.95
2022-11-09T13:53:02.712Z,68.77
2022-11-09T13:55:36.793Z,69.21
2022-11-09T13:58:21.721Z,68.73
2022-11-09T14:00:48.989Z,68.75
2022-11-09T14:03:25.865Z,68.93
2022-11-09T14:05:59.659Z,69.81
2022-11-09T14:08:29.365Z,70.21
2022-11-09T14:11:10.937Z,70.55
2022-11-09T14:14:11.764Z,70.70
2022-11-09T14:16:47.640Z,70.94
2022-11-09T14:19:38.667Z,70.93
2022-11-09T14:22:16.347Z,71.89
2022-11-09T14:24:43.402Z,72.07
2022-11-09T14:27:10.015Z,72.59
2022-11-09T14:29:46.661Z,73.04
2022-11-09T14:32:24.720Z,74.08
2022-11-09T14:34:51.490Z,74.43
2022-11-09T14:37:19.052Z,75.62
2022-11-09T14:39:54.214Z,75.71
2022-11-09T14:42:23.656Z,76.22
2022-11-09T14:44:50.497Z,77.07
2022-11-09T14:47:29.303Z,77.64
2022-11-09T14:49:56.276Z,77.69
2022-11-09T14:52:27.874Z,78.47
2022-11-09T14:54:54.687Z,79.62
2022-11-09T14:57:22.977Z,80.43
2022-11-09T14:59:49.623Z,81.03
2022-11-09T15:02:19.710Z,81.54
2022-11-09T15:05:01.819Z,82.75
2022-11-09T15:07:33.170Z,84.50
2022-11-09T15:10:02.787Z,85.78
2022-11-09T15:12:30.611Z,86.12
2022-11-09T15:15:03.270Z,86.64
2022-11-09T15:17:36.383Z,86.91
2022-11-09T15:20:09.246Z,87.38
2022-11-09T15:22:48.580Z,87.67
2022-11-09T15:25:21.014Z,88.78
2022-11-09T15:28:17.040Z,91.43
2022-11-09T15:30:48.728Z,93.27
2022-11-09T15:33:18.450Z,94.71
2022-11-09T15:35:58.567Z,96.91
2022-11-09T15:38:34.478Z,99.50
2022-11-09T15:41:02.157Z,100.00
2022-11-09T15:43:29.054Z,100.00
2022-11-09T15:45:57.331Z,100.00
2022-11-09T15:48:24.042Z,100.00
2022-11-09T15:50:52.379Z,100.00
2022-11-09T15:53:19.103Z,100.00
2022-11-09T15:55:46.192Z,100.00
2022-11-09T15:58:14.832Z,100.00
2022-11-09T16:00:42.161Z,100.00
2022-11-09T16:03:10.226Z,100.00
2022-11-09T16:05:37.131Z,100.00
2022-11-09T16:08:04.119Z,100.00
2022-11-09T16:10:30.995Z,100.00
2022-11-09T16:12:57.786Z,100.00
2022-11-09T16:15:24.985Z,100.00
2022-11-09T16:17:53.387Z,100.00
2022-11-09T16:20:21.430Z,100.00
2022-11-09T16:22:48.526Z,100.00
2022-11-09T16:25:15.801Z,100.00
2022-11-09T16:27:50.126Z,100.00
2022-11-09T16:30:18.258Z,100.00
2022-11-09T16:32:45.017Z,100.00
2022-11-09T16:35:28.265Z,100.00
2022-11-09T16:37:58.067Z,100.00
2022-11-09T16:40:25.878Z,100.00
2022-11-09T16:42:52.588Z,100.00
2022-11-09T16:45:20.415Z,100.00
2022-11-09T16:47:56.417Z,100.00
2022-11-09T16:50:24.455Z,100.00
2022-11-09T16:52:51.035Z,100.00
2022-11-09T16:55:17.794Z,100.00
2022-11-09T16:57:46.178Z,100.00
2022-11-09T17:00:13.664Z,100.00
2022-11-09T17:02:40.321Z,100.00
2022-11-09T17:05:07.687Z,100.00
2022-11-09T17:07:42.185Z,100.00
2022-11-09T17:10:10.079Z,100.00
2022-11-09T17:12:36.664Z,100.00
2022-11-09T17:15:03.971Z,100.00
2022-11-09T17:17:30.815Z,100.00
2022-11-09T17:19:57.405Z,100.00
2022-11-09T17:22:24.161Z,100.00
2022-11-09T17:24:51.134Z,100.00
2022-11-09T17:27:17.807Z,100.00
2022-11-09T17:29:44.347Z,100.00
2022-11-09T17:32:11.556Z,100.00
2022-11-09T17:34:38.130Z,100.00
2022-11-09T17:37:05.736Z,100.00
2022-11-09T17:39:33.443Z,100.00
2022-11-09T17:42:00.007Z,100.00
2022-11-09T17:44:26.654Z,100.00
2022-11-09T17:46:53.546Z,100.00
2022-11-09T17:49:20.155Z,100.00
2022-11-09T17:51:47.137Z,100.00
2022-11-09T17:54:15.087Z,100.00
2022-11-09T17:56:42.137Z,100.00
2022-11-09T17:59:08.934Z,100.00
2022-11-09T18:01:41.055Z,100.00
2022-11-09T18:04:10.922Z,100.00
2022-11-09T18:06:38.574Z,100.00
2022-11-09T18:11:52.236Z,100.00
2022-11-09T18:14:18.862Z,100.00
2022-11-09T18:16:45.573Z,100.00
2022-11-09T18:19:12.513Z,100.00
2022-11-09T18:21:39.287Z,100.00
2022-11-09T18:24:06.369Z,100.00
2022-11-09T18:26:33.185Z,100.00
2022-11-09T18:29:00.312Z,100.00
2022-11-09T18:31:27.182Z,100.00
2022-11-09T18:33:54.025Z,100.00
2022-11-09T18:36:21.795Z,100.00
2022-11-09T18:38:51.166Z,100.00
2022-11-09T18:41:21.854Z,100.00
2022-11-09T18:43:49.895Z,100.00
2022-11-09T18:46:18.124Z,100.00
2022-11-09T18:48:45.442Z,100.00
2022-11-09T18:51:12.431Z,100.00
2022-11-09T18:53:41.683Z,100.00
2022-11-09T18:56:18.347Z,100.00
2022-11-09T18:58:46.054Z,100.00
2022-11-09T19:01:13.075Z,100.00
2022-11-09T19:03:39.907Z,100.00
2022-11-09T19:06:08.467Z,100.00
2022-11-09T19:08:54.086Z,100.00
2022-11-09T19:11:20.803Z,100.00
2022-11-09T19:13:47.657Z,100.00
2022-11-09T19:16:15.704Z,100.00
2022-11-09T19:18:42.604Z,100.00
2022-11-09T19:21:22.755Z,100.00
2022-11-09T19:23:49.295Z,100.00
2022-11-09T19:26:15.892Z,100.00
2022-11-09T19:28:42.650Z,100.00
2022-11-09T19:31:13.868Z,100.00
2022-11-09T19:33:40.457Z,100.00
2022-11-09T19:38:54.046Z,100.00
2022-11-09T19:41:21.794Z,100.00
2022-11-09T19:43:50.052Z,100.00
2022-11-09T19:46:17.902Z,100.00
2022-11-09T19:48:46.016Z,100.00
2022-11-09T19:51:14.687Z,100.00
2022-11-09T19:53:42.658Z,100.00
2022-11-09T19:56:11.565Z,100.00
2022-11-09T19:58:38.434Z,100.00
2022-11-09T20:01:10.276Z,100.00
2022-11-09T20:03:37.541Z,100.00
2022-11-09T20:06:05.599Z,100.00
2022-11-09T20:08:36.627Z,100.00
2022-11-09T20:11:09.216Z,100.00
2022-11-09T20:13:38.317Z,100.00
2022-11-09T20:16:07.416Z,100.00
2022-11-09T20:18:38.439Z,100.00
2022-11-09T20:21:06.993Z,100.00
2022-11-09T20:23:33.742Z,100.00
2022-11-09T20:26:07.781Z,100.00
2022-11-09T20:28:34.424Z,100.00
2022-11-09T20:31:01.160Z,100.00
2022-11-09T20:33:27.806Z,100.00
2022-11-09T20:35:55.441Z,100.00
2022-11-09T20:38:23.299Z,100.00
2022-11-09T20:40:57.458Z,100.00
2022-11-09T20:43:26.039Z,100.00
2022-11-09T20:45:53.825Z,100.00
2022-11-09T20:48:46.935Z,100.00
2022-11-09T20:51:09.776Z,100.00
2022-11-09T20:53:36.988Z,100.00
2022-11-09T20:56:04.114Z,100.00
2022-11-09T20:58:30.859Z,100.00
2022-11-09T21:01:12.900Z,100.00
2022-11-09T21:03:40.005Z,100.00
2022-11-09T21:06:07.695Z,100.00
2022-11-09T21:08:34.509Z,100.00
2022-11-09T21:11:03.022Z,100.00
2022-11-09T21:13:29.817Z,100.00
2022-11-09T21:16:03.779Z,100.00
2022-11-09T21:18:30.282Z,100.00
2022-11-09T21:20:56.825Z,100.00
2022-11-09T21:23:23.382Z,100.00
2022-11-09T21:26:08.403Z,100.00
2022-11-09T21:28:53.392Z,100.00
2022-11-09T21:31:19.888Z,100.00
2022-11-09T21:33:46.409Z,100.00
2022-11-09T21:36:14.723Z,100.00
2022-11-09T21:38:41.559Z,100.00
2022-11-09T21:41:27.846Z,100.00
2022-11-09T21:43:55.562Z,100.00
2022-11-09T21:46:25.229Z,100.00
2022-11-09T21:48:51.987Z,100.00
2022-11-09T21:51:18.665Z,100.00
2022-11-09T21:53:46.631Z,100.00
2022-11-09T21:56:13.530Z,100.00
2022-11-09T21:58:40.186Z,100.00
2022-11-09T22:01:10.834Z,100.00
2022-11-09T22:03:38.033Z,100.00
2022-11-09T22:06:05.114Z,100.00
2022-11-09T22:08:31.814Z,100.00
2022-11-09T22:11:13.954Z,100.00
2022-11-09T22:14:00.264Z,100.00
2022-11-09T22:16:29.878Z,100.00
2022-11-09T22:19:15.252Z,100.00
2022-11-09T22:21:44.844Z,100.00
2022-11-09T22:24:11.672Z,100.00
2022-11-09T22:26:38.399Z,100.00
2022-11-09T22:29:05.515Z,100.00
2022-11-09T22:31:32.179Z,100.00
2022-11-09T22:33:58.737Z,100.00
2022-11-09T22:36:25.364Z,100.00
2022-11-09T22:38:51.929Z,100.00
2022-11-09T22:41:18.498Z,100.00
2022-11-09T22:43:45.096Z,100.00
2022-11-09T22:46:14.368Z,100.00
2022-11-09T22:48:42.572Z,100.00
2022-11-09T22:51:12.266Z,100.00
2022-11-09T22:53:39.229Z,100.00
2022-11-09T22:56:06.339Z,100.00
2022-11-09T22:58:33.266Z,100.00
2022-11-09T23:01:09.164Z,100.00
2022-11-09T23:03:36.310Z,100.00
2022-11-09T23:06:05.997Z,100.00
2022-11-09T23:08:38.190Z,100.00
2022-11-09T23:11:11.699Z,100.00
2022-11-09T23:13:38.597Z,100.00
2022-11-09T23:16:07.897Z,100.00
2022-11-09T23:18:53.871Z,100.00
2022-11-09T23:21:34.119Z,100.00
2022-11-09T23:24:03.535Z,100.00
2022-11-09T23:26:31.349Z,100.00
2022-11-09T23:28:58.463Z,100.00
2022-11-09T23:31:26.902Z,100.00
2022-11-09T23:33:56.111Z,100.00
2022-11-09T23:36:24.756Z,100.00
2022-11-09T23:38:52.038Z,100.00
2022-11-09T23:41:19.358Z,100.00
2022-11-09T23:43:49.280Z,100.00
2022-11-09T23:46:17.862Z,100.00
2022-11-09T23:48:44.759Z,100.00
2022-11-09T23:51:11.664Z,100.00
2022-11-09T23:53:38.786Z,100.00
2022-11-09T23:56:11.680Z,100.00
2022-11-09T23:58:38.609Z,100.00
